sensor_id;sensor_type;location;lat;lon;timestamp;P1;durP1;ratioP1;P2;durP2;ratioP2
64938;SDS011;51453;47.738;7.420;2022-11-15T00:00:50;7.80;;;4.88;;
64938;SDS011;51453;47.738;7.420;2022-11-15T00:03:16;10.02;;;5.68;;
64938;SDS011;51453;47.738;7.420;2022-11-15T00:05:43;8.35;;;5.10;;
64938;SDS011;51453;47.738;7.420;2022-11-15T00:08:09;7.80;;;4.80;;
64938;SDS011;51453;47.738;7.420;2022-11-15T00:10:35;7.85;;;5.50;;
64938;SDS011;51453;47.738;7.420;2022-11-15T00:13:05;8.35;;;5.05;;
64938;SDS011;51453;47.738;7.420;2022-11-15T00:15:36;7.15;;;5.05;;
64938;SDS011;51453;47.738;7.420;2022-11-15T00:18:05;9.35;;;5.30;;
64938;SDS011;51453;47.738;7.420;2022-11-15T00:20:37;8.88;;;5.47;;
64938;SDS011;51453;47.738;7.420;2022-11-15T00:23:03;11.70;;;6.15;;
64938;SDS011;51453;47.738;7.420;2022-11-15T00:25:29;9.60;;;5.97;;
64938;SDS011;51453;47.738;7.420;2022-11-15T00:27:58;9.50;;;6.22;;
64938;SDS011;51453;47.738;7.420;2022-11-15T00:30:25;10.20;;;5.88;;
64938;SDS011;51453;47.738;7.420;2022-11-15T00:32:51;13.95;;;5.35;;
64938;SDS011;51453;47.738;7.420;2022-11-15T00:35:17;7.80;;;5.38;;
64938;SDS011;51453;47.738;7.420;2022-11-15T00:37:44;9.88;;;5.65;;
64938;SDS011;51453;47.738;7.420;2022-11-15T00:40:10;6.72;;;5.32;;
64938;SDS011;51453;47.738;7.420;2022-11-15T00:42:37;8.55;;;4.75;;
64938;SDS011;51453;47.738;7.420;2022-11-15T00:45:03;12.73;;;5.63;;
64938;SDS011;51453;47.738;7.420;2022-11-15T00:47:29;7.03;;;5.25;;
64938;SDS011;51453;47.738;7.420;2022-11-15T00:49:55;7.85;;;5.45;;
64938;SDS011;51453;47.738;7.420;2022-11-15T00:52:20;7.78;;;5.35;;
64938;SDS011;51453;47.738;7.420;2022-11-15T00:54:46;8.10;;;5.10;;
64938;SDS011;51453;47.738;7.420;2022-11-15T00:57:11;8.90;;;5.60;;
64938;SDS011;51453;47.738;7.420;2022-11-15T00:59:37;7.55;;;5.50;;
64938;SDS011;51453;47.738;7.420;2022-11-15T01:02:03;9.10;;;6.28;;
64938;SDS011;51453;47.738;7.420;2022-11-15T01:04:28;9.43;;;6.03;;
64938;SDS011;51453;47.738;7.420;2022-11-15T01:06:54;7.28;;;4.95;;
64938;SDS011;51453;47.738;7.420;2022-11-15T01:09:20;7.63;;;5.25;;
64938;SDS011;51453;47.738;7.420;2022-11-15T01:11:45;5.95;;;4.80;;
64938;SDS011;51453;47.738;7.420;2022-11-15T01:14:11;6.10;;;4.70;;
64938;SDS011;51453;47.738;7.420;2022-11-15T01:16:37;8.32;;;4.60;;
64938;SDS011;51453;47.738;7.420;2022-11-15T01:19:02;5.00;;;4.20;;
64938;SDS011;51453;47.738;7.420;2022-11-15T01:21:28;9.98;;;4.85;;
64938;SDS011;51453;47.738;7.420;2022-11-15T01:23:55;7.55;;;4.78;;
64938;SDS011;51453;47.738;7.420;2022-11-15T01:26:21;5.80;;;4.70;;
64938;SDS011;51453;47.738;7.420;2022-11-15T01:28:48;8.13;;;4.60;;
64938;SDS011;51453;47.738;7.420;2022-11-15T01:31:20;5.50;;;4.00;;
64938;SDS011;51453;47.738;7.420;2022-11-15T01:33:46;7.03;;;3.90;;
64938;SDS011;51453;47.738;7.420;2022-11-15T01:36:14;7.35;;;4.30;;
64938;SDS011;51453;47.738;7.420;2022-11-15T01:38:44;7.53;;;4.28;;
64938;SDS011;51453;47.738;7.420;2022-11-15T01:41:17;8.45;;;4.20;;
64938;SDS011;51453;47.738;7.420;2022-11-15T01:43:46;5.90;;;3.97;;
64938;SDS011;51453;47.738;7.420;2022-11-15T01:49:00;8.95;;;4.63;;
64938;SDS011;51453;47.738;7.420;2022-11-15T01:51:29;6.20;;;4.47;;
64938;SDS011;51453;47.738;7.420;2022-11-15T01:53:59;7.70;;;4.47;;
64938;SDS011;51453;47.738;7.420;2022-11-15T01:56:31;8.27;;;5.38;;
64938;SDS011;51453;47.738;7.420;2022-11-15T01:59:01;8.48;;;4.93;;
64938;SDS011;51453;47.738;7.420;2022-11-15T02:01:30;7.65;;;4.70;;
64938;SDS011;51453;47.738;7.420;2022-11-15T02:04:01;7.43;;;4.65;;
64938;SDS011;51453;47.738;7.420;2022-11-15T02:06:34;9.25;;;4.43;;
64938;SDS011;51453;47.738;7.420;2022-11-15T02:09:00;7.45;;;4.65;;
64938;SDS011;51453;47.738;7.420;2022-11-15T02:11:27;7.35;;;4.53;;
64938;SDS011;51453;47.738;7.420;2022-11-15T02:13:53;5.30;;;4.20;;
64938;SDS011;51453;47.738;7.420;2022-11-15T02:19:05;5.30;;;4.05;;
64938;SDS011;51453;47.738;7.420;2022-11-15T02:21:41;4.53;;;4.07;;
64938;SDS011;51453;47.738;7.420;2022-11-15T02:30:03;7.47;;;4.25;;
64938;SDS011;51453;47.738;7.420;2022-11-15T02:32:38;7.03;;;4.43;;
64938;SDS011;51453;47.738;7.420;2022-11-15T02:37:55;6.70;;;4.00;;
64938;SDS011;51453;47.738;7.420;2022-11-15T02:42:50;4.97;;;3.97;;
64938;SDS011;51453;47.738;7.420;2022-11-15T02:45:40;4.13;;;3.70;;
64938;SDS011;51453;47.738;7.420;2022-11-15T02:48:11;5.88;;;3.67;;
64938;SDS011;51453;47.738;7.420;2022-11-15T02:50:37;6.93;;;3.63;;
64938;SDS011;51453;47.738;7.420;2022-11-15T02:53:04;4.68;;;3.45;;
64938;SDS011;51453;47.738;7.420;2022-11-15T02:55:35;5.57;;;3.58;;
64938;SDS011;51453;47.738;7.420;2022-11-15T02:58:10;4.07;;;3.30;;
64938;SDS011;51453;47.738;7.420;2022-11-15T03:06:52;4.13;;;3.70;;
64938;SDS011;51453;47.738;7.420;2022-11-15T03:11:59;4.43;;;3.58;;
64938;SDS011;51453;47.738;7.420;2022-11-15T03:14:32;6.97;;;4.28;;
64938;SDS011;51453;47.738;7.420;2022-11-15T03:19:47;6.40;;;3.90;;
64938;SDS011;51453;47.738;7.420;2022-11-15T03:22:17;9.10;;;4.40;;
64938;SDS011;51453;47.738;7.420;2022-11-15T03:24:46;7.45;;;3.78;;
64938;SDS011;51453;47.738;7.420;2022-11-15T03:29:46;9.02;;;3.40;;
64938;SDS011;51453;47.738;7.420;2022-11-15T03:32:19;4.55;;;3.15;;
64938;SDS011;51453;47.738;7.420;2022-11-15T03:40:24;5.85;;;3.30;;
64938;SDS011;51453;47.738;7.420;2022-11-15T03:45:54;2.83;;;2.45;;
64938;SDS011;51453;47.738;7.420;2022-11-15T03:48:26;5.73;;;3.97;;
64938;SDS011;51453;47.738;7.420;2022-11-15T03:50:55;16.27;;;7.78;;
64938;SDS011;51453;47.738;7.420;2022-11-15T03:53:21;5.32;;;3.45;;
64938;SDS011;51453;47.738;7.420;2022-11-15T03:55:47;5.25;;;3.30;;
64938;SDS011;51453;47.738;7.420;2022-11-15T03:58:13;7.10;;;4.07;;
64938;SDS011;51453;47.738;7.420;2022-11-15T04:00:38;3.42;;;2.72;;
64938;SDS011;51453;47.738;7.420;2022-11-15T04:03:04;4.25;;;2.50;;
64938;SDS011;51453;47.738;7.420;2022-11-15T04:05:30;3.47;;;2.80;;
64938;SDS011;51453;47.738;7.420;2022-11-15T04:07:55;15.65;;;8.50;;
64938;SDS011;51453;47.738;7.420;2022-11-15T04:10:21;74.03;;;37.72;;
64938;SDS011;51453;47.738;7.420;2022-11-15T04:12:47;47.63;;;25.02;;
64938;SDS011;51453;47.738;7.420;2022-11-15T04:15:13;78.95;;;39.35;;
64938;SDS011;51453;47.738;7.420;2022-11-15T04:17:48;15.13;;;8.85;;
64938;SDS011;51453;47.738;7.420;2022-11-15T04:20:18;3.90;;;3.30;;
64938;SDS011;51453;47.738;7.420;2022-11-15T04:23:04;4.75;;;3.50;;
64938;SDS011;51453;47.738;7.420;2022-11-15T04:25:51;5.18;;;3.30;;
64938;SDS011;51453;47.738;7.420;2022-11-15T04:28:18;22.45;;;15.43;;
64938;SDS011;51453;47.738;7.420;2022-11-15T04:30:44;29.75;;;19.65;;
64938;SDS011;51453;47.738;7.420;2022-11-15T04:33:10;25.10;;;13.32;;
64938;SDS011;51453;47.738;7.420;2022-11-15T04:35:36;9.48;;;7.15;;
64938;SDS011;51453;47.738;7.420;2022-11-15T04:38:02;7.55;;;5.00;;
64938;SDS011;51453;47.738;7.420;2022-11-15T04:40:29;6.13;;;4.55;;
64938;SDS011;51453;47.738;7.420;2022-11-15T04:42:55;9.18;;;5.20;;
64938;SDS011;51453;47.738;7.420;2022-11-15T04:45:22;11.23;;;9.35;;
64938;SDS011;51453;47.738;7.420;2022-11-15T04:47:47;15.23;;;12.32;;
64938;SDS011;51453;47.738;7.420;2022-11-15T04:50:13;19.88;;;11.73;;
64938;SDS011;51453;47.738;7.420;2022-11-15T04:52:43;12.10;;;8.98;;
64938;SDS011;51453;47.738;7.420;2022-11-15T04:55:16;10.40;;;6.55;;
64938;SDS011;51453;47.738;7.420;2022-11-15T04:57:41;8.90;;;6.68;;
64938;SDS011;51453;47.738;7.420;2022-11-15T05:00:08;8.82;;;6.22;;
64938;SDS011;51453;47.738;7.420;2022-11-15T05:02:36;8.85;;;5.95;;
64938;SDS011;51453;47.738;7.420;2022-11-15T05:05:20;10.90;;;7.30;;
64938;SDS011;51453;47.738;7.420;2022-11-15T05:07:46;14.27;;;8.40;;
64938;SDS011;51453;47.738;7.420;2022-11-15T05:10:12;14.63;;;9.40;;
64938;SDS011;51453;47.738;7.420;2022-11-15T05:12:37;12.43;;;8.20;;
64938;SDS011;51453;47.738;7.420;2022-11-15T05:15:03;14.73;;;10.38;;
64938;SDS011;51453;47.738;7.420;2022-11-15T05:17:29;13.60;;;9.90;;
64938;SDS011;51453;47.738;7.420;2022-11-15T05:19:55;16.75;;;11.88;;
64938;SDS011;51453;47.738;7.420;2022-11-15T05:22:21;16.25;;;13.23;;
64938;SDS011;51453;47.738;7.420;2022-11-15T05:24:46;15.35;;;11.10;;
64938;SDS011;51453;47.738;7.420;2022-11-15T05:27:12;12.20;;;7.97;;
64938;SDS011;51453;47.738;7.420;2022-11-15T05:29:38;15.48;;;10.07;;
64938;SDS011;51453;47.738;7.420;2022-11-15T05:32:04;17.63;;;10.27;;
64938;SDS011;51453;47.738;7.420;2022-11-15T05:34:31;12.07;;;7.82;;
64938;SDS011;51453;47.738;7.420;2022-11-15T05:36:57;12.23;;;8.02;;
64938;SDS011;51453;47.738;7.420;2022-11-15T05:39:23;15.20;;;9.18;;
64938;SDS011;51453;47.738;7.420;2022-11-15T05:41:52;14.15;;;8.30;;
64938;SDS011;51453;47.738;7.420;2022-11-15T05:44:46;14.27;;;9.05;;
64938;SDS011;51453;47.738;7.420;2022-11-15T05:47:19;11.10;;;8.18;;
64938;SDS011;51453;47.738;7.420;2022-11-15T05:49:47;17.17;;;10.50;;
64938;SDS011;51453;47.738;7.420;2022-11-15T05:52:15;16.88;;;10.82;;
64938;SDS011;51453;47.738;7.420;2022-11-15T05:54:43;21.08;;;11.15;;
64938;SDS011;51453;47.738;7.420;2022-11-15T05:57:09;18.58;;;11.25;;
64938;SDS011;51453;47.738;7.420;2022-11-15T05:59:35;13.45;;;9.52;;
64938;SDS011;51453;47.738;7.420;2022-11-15T06:02:01;16.00;;;11.20;;
64938;SDS011;51453;47.738;7.420;2022-11-15T06:04:27;20.02;;;12.55;;
64938;SDS011;51453;47.738;7.420;2022-11-15T06:06:53;21.42;;;11.48;;
64938;SDS011;51453;47.738;7.420;2022-11-15T06:09:18;20.95;;;11.80;;
64938;SDS011;51453;47.738;7.420;2022-11-15T06:11:44;16.60;;;11.15;;
64938;SDS011;51453;47.738;7.420;2022-11-15T06:14:10;15.35;;;10.88;;
64938;SDS011;51453;47.738;7.420;2022-11-15T06:16:36;14.25;;;9.30;;
64938;SDS011;51453;47.738;7.420;2022-11-15T06:19:02;13.18;;;9.73;;
64938;SDS011;51453;47.738;7.420;2022-11-15T06:21:27;14.10;;;10.07;;
64938;SDS011;51453;47.738;7.420;2022-11-15T06:23:54;15.50;;;9.75;;
64938;SDS011;51453;47.738;7.420;2022-11-15T06:26:20;16.98;;;10.55;;
64938;SDS011;51453;47.738;7.420;2022-11-15T06:28:45;15.55;;;10.75;;
64938;SDS011;51453;47.738;7.420;2022-11-15T06:31:11;12.55;;;10.10;;
64938;SDS011;51453;47.738;7.420;2022-11-15T06:33:37;11.77;;;9.25;;
64938;SDS011;51453;47.738;7.420;2022-11-15T06:36:07;17.20;;;11.05;;
64938;SDS011;51453;47.738;7.420;2022-11-15T06:38:35;17.95;;;11.48;;
64938;SDS011;51453;47.738;7.420;2022-11-15T06:41:05;18.38;;;12.60;;
64938;SDS011;51453;47.738;7.420;2022-11-15T06:43:32;25.30;;;14.18;;
64938;SDS011;51453;47.738;7.420;2022-11-15T06:45:59;21.80;;;12.02;;
64938;SDS011;51453;47.738;7.420;2022-11-15T06:48:25;16.08;;;11.80;;
64938;SDS011;51453;47.738;7.420;2022-11-15T06:50:52;19.13;;;12.13;;
64938;SDS011;51453;47.738;7.420;2022-11-15T06:53:18;18.02;;;12.80;;
64938;SDS011;51453;47.738;7.420;2022-11-15T06:55:44;15.98;;;11.85;;
64938;SDS011;51453;47.738;7.420;2022-11-15T06:58:10;16.65;;;11.88;;
64938;SDS011;51453;47.738;7.420;2022-11-15T07:00:35;16.38;;;10.45;;
64938;SDS011;51453;47.738;7.420;2022-11-15T07:03:01;18.25;;;11.18;;
64938;SDS011;51453;47.738;7.420;2022-11-15T07:05:28;13.43;;;10.07;;
64938;SDS011;51453;47.738;7.420;2022-11-15T07:07:54;19.30;;;12.20;;
64938;SDS011;51453;47.738;7.420;2022-11-15T07:10:22;15.93;;;12.50;;
64938;SDS011;51453;47.738;7.420;2022-11-15T07:12:49;18.20;;;11.95;;
64938;SDS011;51453;47.738;7.420;2022-11-15T07:15:16;24.58;;;14.10;;
64938;SDS011;51453;47.738;7.420;2022-11-15T07:17:42;16.17;;;11.52;;
64938;SDS011;51453;47.738;7.420;2022-11-15T07:20:08;26.20;;;13.10;;
64938;SDS011;51453;47.738;7.420;2022-11-15T07:22:34;18.77;;;13.27;;
64938;SDS011;51453;47.738;7.420;2022-11-15T07:25:00;18.60;;;12.32;;
64938;SDS011;51453;47.738;7.420;2022-11-15T07:27:25;22.45;;;14.13;;
64938;SDS011;51453;47.738;7.420;2022-11-15T07:29:51;14.93;;;11.13;;
64938;SDS011;51453;47.738;7.420;2022-11-15T07:32:17;21.02;;;14.30;;
64938;SDS011;51453;47.738;7.420;2022-11-15T07:34:42;23.73;;;13.57;;
64938;SDS011;51453;47.738;7.420;2022-11-15T07:37:10;29.75;;;17.70;;
64938;SDS011;51453;47.738;7.420;2022-11-15T07:39:36;22.02;;;13.32;;
64938;SDS011;51453;47.738;7.420;2022-11-15T07:42:02;23.40;;;12.57;;
64938;SDS011;51453;47.738;7.420;2022-11-15T07:45:06;18.73;;;11.85;;
64938;SDS011;51453;47.738;7.420;2022-11-15T07:47:32;15.75;;;11.75;;
64938;SDS011;51453;47.738;7.420;2022-11-15T07:49:57;16.63;;;11.98;;
64938;SDS011;51453;47.738;7.420;2022-11-15T07:52:23;13.15;;;10.02;;
64938;SDS011;51453;47.738;7.420;2022-11-15T07:54:49;12.90;;;9.77;;
64938;SDS011;51453;47.738;7.420;2022-11-15T07:57:14;15.13;;;11.35;;
64938;SDS011;51453;47.738;7.420;2022-11-15T07:59:41;14.77;;;11.02;;
64938;SDS011;51453;47.738;7.420;2022-11-15T08:02:08;12.90;;;9.80;;
64938;SDS011;51453;47.738;7.420;2022-11-15T08:04:34;14.85;;;11.02;;
64938;SDS011;51453;47.738;7.420;2022-11-15T08:07:00;18.17;;;11.18;;
64938;SDS011;51453;47.738;7.420;2022-11-15T08:09:25;16.88;;;11.32;;
64938;SDS011;51453;47.738;7.420;2022-11-15T08:11:51;17.48;;;12.15;;
64938;SDS011;51453;47.738;7.420;2022-11-15T08:14:17;21.65;;;13.10;;
64938;SDS011;51453;47.738;7.420;2022-11-15T08:16:42;15.18;;;9.98;;
64938;SDS011;51453;47.738;7.420;2022-11-15T08:19:08;17.70;;;11.02;;
64938;SDS011;51453;47.738;7.420;2022-11-15T08:21:35;24.92;;;15.18;;
64938;SDS011;51453;47.738;7.420;2022-11-15T08:24:00;16.67;;;12.10;;
64938;SDS011;51453;47.738;7.420;2022-11-15T08:26:26;19.25;;;12.30;;
64938;SDS011;51453;47.738;7.420;2022-11-15T08:28:54;12.85;;;9.45;;
64938;SDS011;51453;47.738;7.420;2022-11-15T08:31:20;16.70;;;10.30;;
64938;SDS011;51453;47.738;7.420;2022-11-15T08:33:46;17.20;;;12.48;;
64938;SDS011;51453;47.738;7.420;2022-11-15T08:36:15;15.90;;;11.48;;
64938;SDS011;51453;47.738;7.420;2022-11-15T08:38:41;14.48;;;11.15;;
64938;SDS011;51453;47.738;7.420;2022-11-15T08:41:10;19.08;;;11.48;;
64938;SDS011;51453;47.738;7.420;2022-11-15T08:43:54;15.25;;;11.05;;
64938;SDS011;51453;47.738;7.420;2022-11-15T08:46:20;20.67;;;11.43;;
64938;SDS011;51453;47.738;7.420;2022-11-15T08:48:46;15.52;;;11.48;;
64938;SDS011;51453;47.738;7.420;2022-11-15T08:51:12;14.90;;;11.45;;
64938;SDS011;51453;47.738;7.420;2022-11-15T08:53:37;15.57;;;11.73;;
64938;SDS011;51453;47.738;7.420;2022-11-15T08:56:06;13.18;;;11.15;;
64938;SDS011;51453;47.738;7.420;2022-11-15T08:58:34;14.88;;;10.63;;
64938;SDS011;51453;47.738;7.420;2022-11-15T09:01:00;15.60;;;11.00;;
64938;SDS011;51453;47.738;7.420;2022-11-15T09:03:26;15.05;;;10.48;;
64938;SDS011;51453;47.738;7.420;2022-11-15T09:05:55;19.38;;;11.70;;
64938;SDS011;51453;47.738;7.420;2022-11-15T09:08:22;19.35;;;11.15;;
64938;SDS011;51453;47.738;7.420;2022-11-15T09:10:48;17.38;;;10.63;;
64938;SDS011;51453;47.738;7.420;2022-11-15T09:13:13;18.58;;;10.18;;
64938;SDS011;51453;47.738;7.420;2022-11-15T09:15:39;14.98;;;9.82;;
64938;SDS011;51453;47.738;7.420;2022-11-15T09:18:05;15.48;;;9.57;;
64938;SDS011;51453;47.738;7.420;2022-11-15T09:20:31;12.57;;;9.27;;
64938;SDS011;51453;47.738;7.420;2022-11-15T09:23:00;17.38;;;9.20;;
64938;SDS011;51453;47.738;7.420;2022-11-15T09:25:26;13.35;;;9.88;;
64938;SDS011;51453;47.738;7.420;2022-11-15T09:27:53;15.18;;;9.73;;
64938;SDS011;51453;47.738;7.420;2022-11-15T09:30:18;13.77;;;10.43;;
64938;SDS011;51453;47.738;7.420;2022-11-15T09:32:44;16.55;;;10.75;;
64938;SDS011;51453;47.738;7.420;2022-11-15T09:35:10;13.07;;;9.57;;
64938;SDS011;51453;47.738;7.420;2022-11-15T09:37:35;14.02;;;9.45;;
64938;SDS011;51453;47.738;7.420;2022-11-15T09:40:01;12.65;;;9.07;;
64938;SDS011;51453;47.738;7.420;2022-11-15T09:45:22;19.08;;;9.70;;
64938;SDS011;51453;47.738;7.420;2022-11-15T09:48:00;12.27;;;8.80;;
64938;SDS011;51453;47.738;7.420;2022-11-15T09:50:49;13.00;;;9.02;;
64938;SDS011;51453;47.738;7.420;2022-11-15T09:56:31;22.83;;;9.45;;
64938;SDS011;51453;47.738;7.420;2022-11-15T09:59:11;16.13;;;8.32;;
64938;SDS011;51453;47.738;7.420;2022-11-15T10:04:16;8.85;;;7.88;;
64938;SDS011;51453;47.738;7.420;2022-11-15T10:06:45;8.82;;;6.28;;
64938;SDS011;51453;47.738;7.420;2022-11-15T10:09:22;11.43;;;7.28;;
64938;SDS011;51453;47.738;7.420;2022-11-15T10:11:51;9.25;;;7.22;;
64938;SDS011;51453;47.738;7.420;2022-11-15T10:14:18;9.27;;;6.75;;
64938;SDS011;51453;47.738;7.420;2022-11-15T10:24:35;17.35;;;8.00;;
64938;SDS011;51453;47.738;7.420;2022-11-15T10:27:15;15.85;;;6.70;;
64938;SDS011;51453;47.738;7.420;2022-11-15T10:29:47;7.60;;;6.00;;
64938;SDS011;51453;47.738;7.420;2022-11-15T10:32:17;8.48;;;5.90;;
64938;SDS011;51453;47.738;7.420;2022-11-15T10:34:46;9.80;;;6.07;;
64938;SDS011;51453;47.738;7.420;2022-11-15T10:37:13;7.63;;;5.38;;
64938;SDS011;51453;47.738;7.420;2022-11-15T10:39:39;9.90;;;5.18;;
64938;SDS011;51453;47.738;7.420;2022-11-15T10:42:18;6.82;;;5.40;;
64938;SDS011;51453;47.738;7.420;2022-11-15T10:44:51;10.80;;;5.63;;
64938;SDS011;51453;47.738;7.420;2022-11-15T10:47:24;7.00;;;4.78;;
64938;SDS011;51453;47.738;7.420;2022-11-15T10:49:57;16.02;;;6.18;;
64938;SDS011;51453;47.738;7.420;2022-11-15T10:52:24;10.38;;;6.03;;
64938;SDS011;51453;47.738;7.420;2022-11-15T10:55:25;8.88;;;5.47;;
64938;SDS011;51453;47.738;7.420;2022-11-15T10:58:34;8.95;;;5.57;;
64938;SDS011;51453;47.738;7.420;2022-11-15T11:00:56;7.97;;;5.38;;
64938;SDS011;51453;47.738;7.420;2022-11-15T11:03:35;10.93;;;5.75;;
64938;SDS011;51453;47.738;7.420;2022-11-15T11:06:12;7.50;;;5.25;;
64938;SDS011;51453;47.738;7.420;2022-11-15T11:11:25;13.23;;;6.45;;
64938;SDS011;51453;47.738;7.420;2022-11-15T11:14:17;9.20;;;5.72;;
64938;SDS011;51453;47.738;7.420;2022-11-15T11:19:45;7.13;;;4.60;;
64938;SDS011;51453;47.738;7.420;2022-11-15T11:22:15;5.70;;;4.50;;
64938;SDS011;51453;47.738;7.420;2022-11-15T11:30:43;7.78;;;5.30;;
64938;SDS011;51453;47.738;7.420;2022-11-15T11:38:49;5.32;;;3.85;;
64938;SDS011;51453;47.738;7.420;2022-11-15T11:47:01;7.30;;;4.60;;
64938;SDS011;51453;47.738;7.420;2022-11-15T11:50:18;5.40;;;4.50;;
64938;SDS011;51453;47.738;7.420;2022-11-15T11:52:38;7.93;;;5.03;;
64938;SDS011;51453;47.738;7.420;2022-11-15T12:17:24;8.77;;;5.50;;
64938;SDS011;51453;47.738;7.420;2022-11-15T12:19:52;12.85;;;6.13;;
64938;SDS011;51453;47.738;7.420;2022-11-15T12:22:24;8.45;;;4.50;;
64938;SDS011;51453;47.738;7.420;2022-11-15T12:27:45;6.93;;;5.10;;
64938;SDS011;51453;47.738;7.420;2022-11-15T12:30:21;5.63;;;3.90;;
64938;SDS011;51453;47.738;7.420;2022-11-15T12:32:52;5.28;;;3.75;;
64938;SDS011;51453;47.738;7.420;2022-11-15T12:37:54;6.50;;;3.47;;
64938;SDS011;51453;47.738;7.420;2022-11-15T12:45:44;5.90;;;3.30;;
64938;SDS011;51453;47.738;7.420;2022-11-15T13:04:07;5.70;;;3.47;;
64938;SDS011;51453;47.738;7.420;2022-11-15T13:06:40;7.22;;;3.53;;
64938;SDS011;51453;47.738;7.420;2022-11-15T13:12:00;5.20;;;3.13;;
64938;SDS011;51453;47.738;7.420;2022-11-15T13:14:45;5.70;;;3.50;;
64938;SDS011;51453;47.738;7.420;2022-11-15T13:19:45;6.25;;;3.45;;
64938;SDS011;51453;47.738;7.420;2022-11-15T13:22:12;7.50;;;3.70;;
64938;SDS011;51453;47.738;7.420;2022-11-15T13:24:57;5.88;;;3.00;;
64938;SDS011;51453;47.738;7.420;2022-11-15T13:27:23;6.63;;;2.60;;
64938;SDS011;51453;47.738;7.420;2022-11-15T13:29:50;3.95;;;2.50;;
64938;SDS011;51453;47.738;7.420;2022-11-15T13:32:16;5.68;;;2.83;;
64938;SDS011;51453;47.738;7.420;2022-11-15T13:34:45;7.70;;;3.40;;
64938;SDS011;51453;47.738;7.420;2022-11-15T13:39:48;5.38;;;2.83;;
64938;SDS011;51453;47.738;7.420;2022-11-15T13:42:14;5.78;;;3.20;;
64938;SDS011;51453;47.738;7.420;2022-11-15T13:44:54;5.90;;;3.10;;
64938;SDS011;51453;47.738;7.420;2022-11-15T13:47:22;6.40;;;3.80;;
64938;SDS011;51453;47.738;7.420;2022-11-15T13:49:58;6.40;;;3.65;;
64938;SDS011;51453;47.738;7.420;2022-11-15T13:52:27;6.97;;;3.60;;
64938;SDS011;51453;47.738;7.420;2022-11-15T13:55:00;5.35;;;3.10;;
64938;SDS011;51453;47.738;7.420;2022-11-15T13:57:37;5.47;;;3.05;;
64938;SDS011;51453;47.738;7.420;2022-11-15T14:00:24;6.65;;;3.08;;
64938;SDS011;51453;47.738;7.420;2022-11-15T14:03:10;5.35;;;3.00;;
64938;SDS011;51453;47.738;7.420;2022-11-15T14:05:39;9.75;;;3.75;;
64938;SDS011;51453;47.738;7.420;2022-11-15T14:08:21;5.93;;;2.92;;
64938;SDS011;51453;47.738;7.420;2022-11-15T14:10:48;5.55;;;2.40;;
64938;SDS011;51453;47.738;7.420;2022-11-15T14:13:31;5.55;;;2.50;;
64938;SDS011;51453;47.738;7.420;2022-11-15T14:18:47;4.93;;;2.45;;
64938;SDS011;51453;47.738;7.420;2022-11-15T14:21:15;3.90;;;1.90;;
64938;SDS011;51453;47.738;7.420;2022-11-15T14:23:42;5.13;;;2.38;;
64938;SDS011;51453;47.738;7.420;2022-11-15T14:26:21;4.22;;;2.20;;
64938;SDS011;51453;47.738;7.420;2022-11-15T14:28:55;3.95;;;2.40;;
64938;SDS011;51453;47.738;7.420;2022-11-15T14:31:21;2.80;;;2.10;;
64938;SDS011;51453;47.738;7.420;2022-11-15T14:33:47;5.38;;;2.30;;
64938;SDS011;51453;47.738;7.420;2022-11-15T14:36:14;6.28;;;2.60;;
64938;SDS011;51453;47.738;7.420;2022-11-15T14:38:42;9.07;;;2.65;;
64938;SDS011;51453;47.738;7.420;2022-11-15T14:41:26;4.10;;;2.25;;
64938;SDS011;51453;47.738;7.420;2022-11-15T14:43:52;6.82;;;2.75;;
64938;SDS011;51453;47.738;7.420;2022-11-15T14:46:18;3.38;;;2.40;;
64938;SDS011;51453;47.738;7.420;2022-11-15T14:48:44;3.88;;;2.65;;
64938;SDS011;51453;47.738;7.420;2022-11-15T14:51:11;6.68;;;3.15;;
64938;SDS011;51453;47.738;7.420;2022-11-15T14:53:38;4.95;;;3.10;;
64938;SDS011;51453;47.738;7.420;2022-11-15T14:56:05;11.02;;;4.07;;
64938;SDS011;51453;47.738;7.420;2022-11-15T14:58:30;5.10;;;3.30;;
64938;SDS011;51453;47.738;7.420;2022-11-15T15:00:56;4.95;;;3.50;;
64938;SDS011;51453;47.738;7.420;2022-11-15T15:03:22;5.00;;;2.95;;
64938;SDS011;51453;47.738;7.420;2022-11-15T15:05:47;7.25;;;3.17;;
64938;SDS011;51453;47.738;7.420;2022-11-15T15:08:13;4.20;;;2.92;;
64938;SDS011;51453;47.738;7.420;2022-11-15T15:10:40;4.85;;;2.92;;
64938;SDS011;51453;47.738;7.420;2022-11-15T15:13:14;5.32;;;2.63;;
64938;SDS011;51453;47.738;7.420;2022-11-15T15:15:43;5.18;;;2.70;;
64938;SDS011;51453;47.738;7.420;2022-11-15T15:18:09;3.53;;;2.50;;
64938;SDS011;51453;47.738;7.420;2022-11-15T15:20:36;3.65;;;2.78;;
64938;SDS011;51453;47.738;7.420;2022-11-15T15:23:08;4.80;;;2.95;;
64938;SDS011;51453;47.738;7.420;2022-11-15T15:25:44;4.38;;;2.90;;
64938;SDS011;51453;47.738;7.420;2022-11-15T15:28:11;9.85;;;3.28;;
64938;SDS011;51453;47.738;7.420;2022-11-15T15:30:37;5.63;;;3.30;;
64938;SDS011;51453;47.738;7.420;2022-11-15T15:33:03;6.28;;;3.80;;
64938;SDS011;51453;47.738;7.420;2022-11-15T15:35:30;7.07;;;4.10;;
64938;SDS011;51453;47.738;7.420;2022-11-15T15:37:57;6.15;;;4.43;;
64938;SDS011;51453;47.738;7.420;2022-11-15T15:40:24;10.20;;;4.60;;
64938;SDS011;51453;47.738;7.420;2022-11-15T15:42:50;5.70;;;4.30;;
64938;SDS011;51453;47.738;7.420;2022-11-15T15:45:17;5.88;;;4.03;;
64938;SDS011;51453;47.738;7.420;2022-11-15T15:47:43;7.05;;;4.60;;
64938;SDS011;51453;47.738;7.420;2022-11-15T15:52:45;6.97;;;4.63;;
64938;SDS011;51453;47.738;7.420;2022-11-15T15:55:10;9.82;;;4.40;;
64938;SDS011;51453;47.738;7.420;2022-11-15T15:57:36;5.90;;;4.38;;
64938;SDS011;51453;47.738;7.420;2022-11-15T16:00:02;6.47;;;3.85;;
64938;SDS011;51453;47.738;7.420;2022-11-15T16:02:29;5.30;;;3.00;;
64938;SDS011;51453;47.738;7.420;2022-11-15T16:04:55;8.40;;;3.50;;
64938;SDS011;51453;47.738;7.420;2022-11-15T16:07:21;5.63;;;3.78;;
64938;SDS011;51453;47.738;7.420;2022-11-15T16:09:53;5.88;;;3.45;;
64938;SDS011;51453;47.738;7.420;2022-11-15T16:14:54;4.72;;;3.42;;
64938;SDS011;51453;47.738;7.420;2022-11-15T16:17:21;3.67;;;3.15;;
64938;SDS011;51453;47.738;7.420;2022-11-15T16:19:49;6.75;;;3.45;;
64938;SDS011;51453;47.738;7.420;2022-11-15T16:22:15;7.70;;;3.85;;
64938;SDS011;51453;47.738;7.420;2022-11-15T16:24:40;6.13;;;3.78;;
64938;SDS011;51453;47.738;7.420;2022-11-15T16:27:10;8.38;;;4.20;;
64938;SDS011;51453;47.738;7.420;2022-11-15T16:29:39;6.30;;;4.38;;
64938;SDS011;51453;47.738;7.420;2022-11-15T16:32:05;8.63;;;4.32;;
64938;SDS011;51453;47.738;7.420;2022-11-15T16:34:31;6.43;;;4.00;;
64938;SDS011;51453;47.738;7.420;2022-11-15T16:36:57;5.93;;;3.53;;
64938;SDS011;51453;47.738;7.420;2022-11-15T16:39:23;4.85;;;3.30;;
64938;SDS011;51453;47.738;7.420;2022-11-15T16:41:48;5.20;;;3.08;;
64938;SDS011;51453;47.738;7.420;2022-11-15T16:44:14;3.80;;;3.03;;
64938;SDS011;51453;47.738;7.420;2022-11-15T16:46:43;5.95;;;3.38;;
64938;SDS011;51453;47.738;7.420;2022-11-15T16:49:15;5.18;;;3.38;;
64938;SDS011;51453;47.738;7.420;2022-11-15T16:51:44;9.18;;;3.20;;
64938;SDS011;51453;47.738;7.420;2022-11-15T16:54:11;6.25;;;3.10;;
64938;SDS011;51453;47.738;7.420;2022-11-15T16:56:37;4.60;;;3.35;;
64938;SDS011;51453;47.738;7.420;2022-11-15T16:59:04;5.70;;;3.13;;
64938;SDS011;51453;47.738;7.420;2022-11-15T17:01:31;4.00;;;3.42;;
64938;SDS011;51453;47.738;7.420;2022-11-15T17:04:11;5.53;;;3.95;;
64938;SDS011;51453;47.738;7.420;2022-11-15T17:06:38;7.38;;;4.60;;
64938;SDS011;51453;47.738;7.420;2022-11-15T17:09:05;8.45;;;4.80;;
64938;SDS011;51453;47.738;7.420;2022-11-15T17:11:35;7.68;;;4.82;;